sensor_id;sensor_type;location;lat;lon;timestamp;P1;durP1;ratioP1;P2;durP2;ratioP2
18752;SDS011;9505;50.882;5.350;2023-11-21T00:02:22;111.07;;;22.42;;
18752;SDS011;9505;50.882;5.350;2023-11-21T00:04:48;105.05;;;21.73;;
18752;SDS011;9505;50.882;5.350;2023-11-21T00:07:15;122.80;;;23.08;;
18752;SDS011;9505;50.882;5.350;2023-11-21T00:09:41;124.10;;;23.60;;
18752;SDS011;9505;50.882;5.350;2023-11-21T00:12:07;118.72;;;21.77;;
18752;SDS011;9505;50.882;5.350;2023-11-21T00:14:36;121.63;;;23.20;;
18752;SDS011;9505;50.882;5.350;2023-11-21T00:17:03;124.13;;;23.52;;
18752;SDS011;9505;50.882;5.350;2023-11-21T00:19:30;102.20;;;23.08;;
18752;SDS011;9505;50.882;5.350;2023-11-21T00:21:56;118.35;;;22.98;;
18752;SDS011;9505;50.882;5.350;2023-11-21T00:24:23;103.50;;;20.70;;
18752;SDS011;9505;50.882;5.350;2023-11-21T00:26:49;114.60;;;21.67;;
18752;SDS011;9505;50.882;5.350;2023-11-21T00:29:15;117.47;;;23.08;;
18752;SDS011;9505;50.882;5.350;2023-11-21T00:31:42;129.10;;;23.90;;
18752;SDS011;9505;50.882;5.350;2023-11-21T00:34:09;124.97;;;24.00;;
18752;SDS011;9505;50.882;5.350;2023-11-21T00:36:34;122.55;;;24.63;;
18752;SDS011;9505;50.882;5.350;2023-11-21T00:39:00;138.10;;;24.63;;
18752;SDS011;9505;50.882;5.350;2023-11-21T00:41:26;120.28;;;22.48;;
18752;SDS011;9505;50.882;5.350;2023-11-21T00:43:52;115.75;;;22.95;;
18752;SDS011;9505;50.882;5.350;2023-11-21T00:46:19;122.00;;;22.95;;
18752;SDS011;9505;50.882;5.350;2023-11-21T00:48:44;101.30;;;20.08;;
18752;SDS011;9505;50.882;5.350;2023-11-21T00:51:10;106.93;;;21.35;;
18752;SDS011;9505;50.882;5.350;2023-11-21T00:53:36;111.95;;;22.20;;
18752;SDS011;9505;50.882;5.350;2023-11-21T00:56:01;107.45;;;22.75;;
18752;SDS011;9505;50.882;5.350;2023-11-21T00:58:27;108.30;;;22.05;;
18752;SDS011;9505;50.882;5.350;2023-11-21T01:00:53;113.50;;;22.33;;
18752;SDS011;9505;50.882;5.350;2023-11-21T01:03:19;99.68;;;21.13;;
18752;SDS011;9505;50.882;5.350;2023-11-21T01:05:45;95.65;;;21.60;;
18752;SDS011;9505;50.882;5.350;2023-11-21T01:08:11;102.93;;;20.50;;
18752;SDS011;9505;50.882;5.350;2023-11-21T01:10:37;117.85;;;22.23;;
18752;SDS011;9505;50.882;5.350;2023-11-21T01:13:02;105.45;;;21.70;;
18752;SDS011;9505;50.882;5.350;2023-11-21T01:15:32;112.88;;;22.23;;
18752;SDS011;9505;50.882;5.350;2023-11-21T01:17:58;115.72;;;21.65;;
18752;SDS011;9505;50.882;5.350;2023-11-21T01:20:24;128.82;;;22.98;;
18752;SDS011;9505;50.882;5.350;2023-11-21T01:22:49;128.15;;;23.15;;
18752;SDS011;9505;50.882;5.350;2023-11-21T01:25:15;124.60;;;23.17;;
18752;SDS011;9505;50.882;5.350;2023-11-21T01:27:41;102.68;;;21.70;;
18752;SDS011;9505;50.882;5.350;2023-11-21T01:30:08;116.95;;;22.73;;
18752;SDS011;9505;50.882;5.350;2023-11-21T01:32:36;118.30;;;23.50;;
18752;SDS011;9505;50.882;5.350;2023-11-21T01:35:02;134.48;;;24.15;;
18752;SDS011;9505;50.882;5.350;2023-11-21T01:37:28;130.32;;;23.15;;
18752;SDS011;9505;50.882;5.350;2023-11-21T01:39:54;148.35;;;24.80;;
18752;SDS011;9505;50.882;5.350;2023-11-21T01:42:22;146.05;;;25.38;;
18752;SDS011;9505;50.882;5.350;2023-11-21T01:44:48;133.77;;;23.60;;
18752;SDS011;9505;50.882;5.350;2023-11-21T01:47:14;125.03;;;23.08;;
18752;SDS011;9505;50.882;5.350;2023-11-21T01:49:40;141.02;;;26.30;;
18752;SDS011;9505;50.882;5.350;2023-11-21T01:52:09;110.13;;;20.67;;
18752;SDS011;9505;50.882;5.350;2023-11-21T01:54:36;145.65;;;23.55;;
18752;SDS011;9505;50.882;5.350;2023-11-21T01:57:03;124.88;;;24.02;;
18752;SDS011;9505;50.882;5.350;2023-11-21T01:59:35;138.15;;;25.98;;
18752;SDS011;9505;50.882;5.350;2023-11-21T02:02:05;134.43;;;23.45;;
18752;SDS011;9505;50.882;5.350;2023-11-21T02:04:32;154.27;;;23.77;;
18752;SDS011;9505;50.882;5.350;2023-11-21T02:06:58;153.23;;;25.80;;
18752;SDS011;9505;50.882;5.350;2023-11-21T02:09:25;165.00;;;26.30;;
18752;SDS011;9505;50.882;5.350;2023-11-21T02:11:52;159.32;;;25.65;;
18752;SDS011;9505;50.882;5.350;2023-11-21T02:14:21;164.80;;;26.45;;
18752;SDS011;9505;50.882;5.350;2023-11-21T02:16:50;137.77;;;25.42;;
18752;SDS011;9505;50.882;5.350;2023-11-21T02:19:20;160.30;;;26.10;;
18752;SDS011;9505;50.882;5.350;2023-11-21T02:21:50;168.82;;;25.48;;
18752;SDS011;9505;50.882;5.350;2023-11-21T02:24:23;151.93;;;23.58;;
18752;SDS011;9505;50.882;5.350;2023-11-21T02:26:49;152.75;;;23.80;;
18752;SDS011;9505;50.882;5.350;2023-11-21T02:29:18;163.98;;;26.25;;
18752;SDS011;9505;50.882;5.350;2023-11-21T02:31:47;164.45;;;26.48;;
18752;SDS011;9505;50.882;5.350;2023-11-21T02:34:14;182.65;;;28.38;;
18752;SDS011;9505;50.882;5.350;2023-11-21T02:36:40;214.65;;;28.83;;
18752;SDS011;9505;50.882;5.350;2023-11-21T02:39:07;171.68;;;26.13;;
18752;SDS011;9505;50.882;5.350;2023-11-21T02:41:33;176.45;;;27.25;;
18752;SDS011;9505;50.882;5.350;2023-11-21T02:43:59;179.52;;;26.20;;
18752;SDS011;9505;50.882;5.350;2023-11-21T02:46:25;166.63;;;26.67;;
18752;SDS011;9505;50.882;5.350;2023-11-21T02:48:51;166.65;;;26.23;;
18752;SDS011;9505;50.882;5.350;2023-11-21T02:51:19;192.32;;;29.15;;
18752;SDS011;9505;50.882;5.350;2023-11-21T02:53:44;204.57;;;29.30;;
18752;SDS011;9505;50.882;5.350;2023-11-21T02:56:11;199.07;;;28.00;;
18752;SDS011;9505;50.882;5.350;2023-11-21T02:58:37;172.75;;;25.55;;
18752;SDS011;9505;50.882;5.350;2023-11-21T03:01:06;191.68;;;28.23;;
18752;SDS011;9505;50.882;5.350;2023-11-21T03:03:33;188.75;;;25.75;;
18752;SDS011;9505;50.882;5.350;2023-11-21T03:05:58;195.60;;;28.90;;
18752;SDS011;9505;50.882;5.350;2023-11-21T03:08:24;182.65;;;28.20;;
18752;SDS011;9505;50.882;5.350;2023-11-21T03:10:49;186.73;;;28.55;;
18752;SDS011;9505;50.882;5.350;2023-11-21T03:13:15;223.10;;;32.17;;
18752;SDS011;9505;50.882;5.350;2023-11-21T03:15:41;217.38;;;31.45;;
18752;SDS011;9505;50.882;5.350;2023-11-21T03:18:07;219.48;;;30.83;;
18752;SDS011;9505;50.882;5.350;2023-11-21T03:20:33;198.48;;;29.67;;
18752;SDS011;9505;50.882;5.350;2023-11-21T03:22:59;196.40;;;26.73;;
18752;SDS011;9505;50.882;5.350;2023-11-21T03:25:25;227.45;;;29.75;;
18752;SDS011;9505;50.882;5.350;2023-11-21T03:27:51;204.43;;;30.20;;
18752;SDS011;9505;50.882;5.350;2023-11-21T03:30:17;212.43;;;30.85;;
18752;SDS011;9505;50.882;5.350;2023-11-21T03:32:42;268.05;;;36.63;;
18752;SDS011;9505;50.882;5.350;2023-11-21T03:35:08;216.13;;;31.85;;
18752;SDS011;9505;50.882;5.350;2023-11-21T03:37:33;248.63;;;34.10;;
18752;SDS011;9505;50.882;5.350;2023-11-21T03:39:59;243.00;;;35.15;;
18752;SDS011;9505;50.882;5.350;2023-11-21T03:42:25;294.83;;;36.45;;
18752;SDS011;9505;50.882;5.350;2023-11-21T03:44:51;271.35;;;36.92;;
18752;SDS011;9505;50.882;5.350;2023-11-21T03:47:17;317.27;;;36.65;;
18752;SDS011;9505;50.882;5.350;2023-11-21T03:49:44;278.60;;;35.15;;
18752;SDS011;9505;50.882;5.350;2023-11-21T03:52:10;327.23;;;37.53;;
18752;SDS011;9505;50.882;5.350;2023-11-21T03:54:36;293.38;;;36.47;;
18752;SDS011;9505;50.882;5.350;2023-11-21T03:57:02;299.35;;;37.33;;
18752;SDS011;9505;50.882;5.350;2023-11-21T03:59:28;251.40;;;32.10;;
18752;SDS011;9505;50.882;5.350;2023-11-21T04:01:55;289.77;;;36.97;;
18752;SDS011;9505;50.882;5.350;2023-11-21T04:04:22;199.32;;;30.35;;
18752;SDS011;9505;50.882;5.350;2023-11-21T04:06:47;265.85;;;34.85;;
18752;SDS011;9505;50.882;5.350;2023-11-21T04:09:13;260.55;;;33.83;;
18752;SDS011;9505;50.882;5.350;2023-11-21T04:11:39;256.67;;;33.63;;
18752;SDS011;9505;50.882;5.350;2023-11-21T04:14:04;307.58;;;37.70;;
18752;SDS011;9505;50.882;5.350;2023-11-21T04:16:30;250.80;;;33.05;;
18752;SDS011;9505;50.882;5.350;2023-11-21T04:18:55;329.08;;;37.13;;
18752;SDS011;9505;50.882;5.350;2023-11-21T04:21:22;274.30;;;34.58;;
18752;SDS011;9505;50.882;5.350;2023-11-21T04:23:49;245.40;;;32.75;;
18752;SDS011;9505;50.882;5.350;2023-11-21T04:26:14;255.90;;;32.70;;
18752;SDS011;9505;50.882;5.350;2023-11-21T04:28:40;225.98;;;31.25;;
18752;SDS011;9505;50.882;5.350;2023-11-21T04:31:05;265.20;;;32.08;;
18752;SDS011;9505;50.882;5.350;2023-11-21T04:33:32;207.75;;;31.00;;
18752;SDS011;9505;50.882;5.350;2023-11-21T04:35:57;236.98;;;30.77;;
18752;SDS011;9505;50.882;5.350;2023-11-21T04:38:23;231.40;;;31.00;;
18752;SDS011;9505;50.882;5.350;2023-11-21T04:40:49;205.68;;;29.02;;
18752;SDS011;9505;50.882;5.350;2023-11-21T04:43:14;253.00;;;30.50;;
18752;SDS011;9505;50.882;5.350;2023-11-21T04:45:40;231.40;;;29.30;;
18752;SDS011;9505;50.882;5.350;2023-11-21T04:48:06;222.57;;;28.60;;
18752;SDS011;9505;50.882;5.350;2023-11-21T04:50:33;195.18;;;26.27;;
18752;SDS011;9505;50.882;5.350;2023-11-21T04:52:59;194.50;;;29.27;;
18752;SDS011;9505;50.882;5.350;2023-11-21T04:55:24;236.20;;;32.08;;
18752;SDS011;9505;50.882;5.350;2023-11-21T04:57:53;253.98;;;29.58;;
18752;SDS011;9505;50.882;5.350;2023-11-21T05:00:18;279.70;;;32.38;;
18752;SDS011;9505;50.882;5.350;2023-11-21T05:02:46;231.55;;;28.27;;
18752;SDS011;9505;50.882;5.350;2023-11-21T05:05:12;274.63;;;31.52;;
18752;SDS011;9505;50.882;5.350;2023-11-21T05:07:39;244.52;;;28.25;;
18752;SDS011;9505;50.882;5.350;2023-11-21T05:10:06;257.70;;;31.83;;
18752;SDS011;9505;50.882;5.350;2023-11-21T05:12:39;218.05;;;28.85;;
18752;SDS011;9505;50.882;5.350;2023-11-21T05:15:07;214.27;;;30.67;;
18752;SDS011;9505;50.882;5.350;2023-11-21T05:17:39;214.60;;;27.38;;
18752;SDS011;9505;50.882;5.350;2023-11-21T05:20:09;243.85;;;28.98;;
18752;SDS011;9505;50.882;5.350;2023-11-21T05:22:36;182.40;;;24.90;;
18752;SDS011;9505;50.882;5.350;2023-11-21T05:25:02;244.45;;;28.98;;
18752;SDS011;9505;50.882;5.350;2023-11-21T05:27:33;246.20;;;28.13;;
18752;SDS011;9505;50.882;5.350;2023-11-21T05:30:00;238.32;;;28.05;;
18752;SDS011;9505;50.882;5.350;2023-11-21T05:32:34;241.77;;;29.67;;
18752;SDS011;9505;50.882;5.350;2023-11-21T05:34:59;226.63;;;26.98;;
18752;SDS011;9505;50.882;5.350;2023-11-21T05:37:26;245.77;;;29.55;;
18752;SDS011;9505;50.882;5.350;2023-11-21T05:39:52;233.65;;;29.95;;
18752;SDS011;9505;50.882;5.350;2023-11-21T05:42:18;245.20;;;27.52;;
18752;SDS011;9505;50.882;5.350;2023-11-21T05:44:44;218.20;;;28.58;;
18752;SDS011;9505;50.882;5.350;2023-11-21T05:47:10;484.52;;;38.50;;
18752;SDS011;9505;50.882;5.350;2023-11-21T05:49:36;395.20;;;36.05;;
18752;SDS011;9505;50.882;5.350;2023-11-21T05:52:02;229.20;;;27.30;;
18752;SDS011;9505;50.882;5.350;2023-11-21T05:54:27;263.00;;;30.25;;
18752;SDS011;9505;50.882;5.350;2023-11-21T05:56:54;246.30;;;29.88;;
18752;SDS011;9505;50.882;5.350;2023-11-21T05:59:19;235.27;;;29.80;;
18752;SDS011;9505;50.882;5.350;2023-11-21T06:01:45;274.63;;;31.70;;
18752;SDS011;9505;50.882;5.350;2023-11-21T06:04:11;235.40;;;31.33;;
18752;SDS011;9505;50.882;5.350;2023-11-21T06:06:38;251.70;;;30.17;;
18752;SDS011;9505;50.882;5.350;2023-11-21T06:09:04;358.38;;;32.15;;
18752;SDS011;9505;50.882;5.350;2023-11-21T06:11:31;301.85;;;33.95;;
18752;SDS011;9505;50.882;5.350;2023-11-21T06:13:57;346.30;;;36.88;;
18752;SDS011;9505;50.882;5.350;2023-11-21T06:16:23;305.58;;;35.08;;
18752;SDS011;9505;50.882;5.350;2023-11-21T06:18:49;334.13;;;35.50;;
18752;SDS011;9505;50.882;5.350;2023-11-21T06:21:15;289.55;;;33.53;;
18752;SDS011;9505;50.882;5.350;2023-11-21T06:23:41;331.90;;;34.70;;
18752;SDS011;9505;50.882;5.350;2023-11-21T06:26:07;327.67;;;37.67;;
18752;SDS011;9505;50.882;5.350;2023-11-21T06:28:34;355.52;;;37.13;;
18752;SDS011;9505;50.882;5.350;2023-11-21T06:31:01;342.90;;;34.33;;
18752;SDS011;9505;50.882;5.350;2023-11-21T06:33:32;313.02;;;35.60;;
18752;SDS011;9505;50.882;5.350;2023-11-21T06:35:58;304.75;;;36.28;;
18752;SDS011;9505;50.882;5.350;2023-11-21T06:38:28;271.80;;;33.10;;
18752;SDS011;9505;50.882;5.350;2023-11-21T06:40:58;368.02;;;36.92;;
18752;SDS011;9505;50.882;5.350;2023-11-21T06:43:24;307.67;;;35.88;;
18752;SDS011;9505;50.882;5.350;2023-11-21T06:45:49;317.40;;;36.10;;
18752;SDS011;9505;50.882;5.350;2023-11-21T06:48:15;307.60;;;36.53;;
18752;SDS011;9505;50.882;5.350;2023-11-21T06:50:40;409.52;;;40.38;;
18752;SDS011;9505;50.882;5.350;2023-11-21T06:53:06;300.17;;;35.00;;
18752;SDS011;9505;50.882;5.350;2023-11-21T06:55:33;324.02;;;35.47;;
18752;SDS011;9505;50.882;5.350;2023-11-21T06:57:58;294.98;;;33.97;;
18752;SDS011;9505;50.882;5.350;2023-11-21T07:00:25;466.05;;;42.90;;
18752;SDS011;9505;50.882;5.350;2023-11-21T07:02:52;381.48;;;38.80;;
18752;SDS011;9505;50.882;5.350;2023-11-21T07:05:19;414.63;;;40.72;;
18752;SDS011;9505;50.882;5.350;2023-11-21T07:07:46;304.33;;;35.75;;
18752;SDS011;9505;50.882;5.350;2023-11-21T07:10:13;291.15;;;36.53;;
18752;SDS011;9505;50.882;5.350;2023-11-21T07:12:39;321.83;;;36.88;;
18752;SDS011;9505;50.882;5.350;2023-11-21T07:15:05;340.80;;;37.03;;
18752;SDS011;9505;50.882;5.350;2023-11-21T07:17:34;331.67;;;35.45;;
18752;SDS011;9505;50.882;5.350;2023-11-21T07:20:00;310.98;;;35.50;;
18752;SDS011;9505;50.882;5.350;2023-11-21T07:22:26;260.05;;;32.92;;
18752;SDS011;9505;50.882;5.350;2023-11-21T07:24:52;304.10;;;34.28;;
18752;SDS011;9505;50.882;5.350;2023-11-21T07:27:18;324.17;;;35.38;;
18752;SDS011;9505;50.882;5.350;2023-11-21T07:29:43;246.48;;;30.33;;
18752;SDS011;9505;50.882;5.350;2023-11-21T07:32:09;252.30;;;32.80;;
18752;SDS011;9505;50.882;5.350;2023-11-21T07:34:35;224.02;;;29.63;;
18752;SDS011;9505;50.882;5.350;2023-11-21T07:37:01;266.70;;;41.88;;
18752;SDS011;9505;50.882;5.350;2023-11-21T07:39:28;208.35;;;31.58;;
18752;SDS011;9505;50.882;5.350;2023-11-21T07:41:53;263.10;;;36.13;;
18752;SDS011;9505;50.882;5.350;2023-11-21T07:44:20;212.00;;;32.28;;
18752;SDS011;9505;50.882;5.350;2023-11-21T07:46:46;270.45;;;34.75;;
18752;SDS011;9505;50.882;5.350;2023-11-21T07:49:12;274.75;;;36.50;;
18752;SDS011;9505;50.882;5.350;2023-11-21T07:51:42;231.63;;;31.05;;
18752;SDS011;9505;50.882;5.350;2023-11-21T07:54:08;254.80;;;35.13;;
18752;SDS011;9505;50.882;5.350;2023-11-21T07:56:35;246.55;;;33.72;;
18752;SDS011;9505;50.882;5.350;2023-11-21T07:59:00;332.52;;;37.05;;
18752;SDS011;9505;50.882;5.350;2023-11-21T08:01:26;304.73;;;35.95;;
18752;SDS011;9505;50.882;5.350;2023-11-21T08:03:53;211.02;;;33.40;;
18752;SDS011;9505;50.882;5.350;2023-11-21T08:06:21;265.20;;;34.10;;
18752;SDS011;9505;50.882;5.350;2023-11-21T08:08:48;234.60;;;34.63;;
18752;SDS011;9505;50.882;5.350;2023-11-21T08:11:14;235.82;;;34.00;;
18752;SDS011;9505;50.882;5.350;2023-11-21T08:13:40;252.23;;;33.67;;
18752;SDS011;9505;50.882;5.350;2023-11-21T08:16:05;277.92;;;40.03;;
18752;SDS011;9505;50.882;5.350;2023-11-21T08:18:32;290.65;;;35.35;;
18752;SDS011;9505;50.882;5.350;2023-11-21T08:20:59;296.38;;;35.30;;
18752;SDS011;9505;50.882;5.350;2023-11-21T08:23:25;255.10;;;34.30;;
18752;SDS011;9505;50.882;5.350;2023-11-21T08:25:51;257.80;;;31.08;;
18752;SDS011;9505;50.882;5.350;2023-11-21T08:28:17;252.52;;;34.72;;
18752;SDS011;9505;50.882;5.350;2023-11-21T08:30:43;234.48;;;31.80;;
18752;SDS011;9505;50.882;5.350;2023-11-21T08:33:09;235.98;;;32.72;;
18752;SDS011;9505;50.882;5.350;2023-11-21T08:35:36;241.85;;;32.25;;
18752;SDS011;9505;50.882;5.350;2023-11-21T08:38:02;254.90;;;31.85;;
18752;SDS011;9505;50.882;5.350;2023-11-21T08:40:28;245.57;;;33.08;;
18752;SDS011;9505;50.882;5.350;2023-11-21T08:42:54;250.30;;;34.72;;
18752;SDS011;9505;50.882;5.350;2023-11-21T08:45:20;253.75;;;32.53;;
18752;SDS011;9505;50.882;5.350;2023-11-21T08:47:47;255.23;;;33.17;;
18752;SDS011;9505;50.882;5.350;2023-11-21T08:50:12;212.20;;;30.55;;
18752;SDS011;9505;50.882;5.350;2023-11-21T08:52:39;233.50;;;33.28;;
18752;SDS011;9505;50.882;5.350;2023-11-21T08:55:06;242.63;;;34.55;;
18752;SDS011;9505;50.882;5.350;2023-11-21T08:57:37;242.50;;;35.35;;
18752;SDS011;9505;50.882;5.350;2023-11-21T09:00:04;224.80;;;31.85;;
18752;SDS011;9505;50.882;5.350;2023-11-21T09:02:36;226.73;;;34.80;;
18752;SDS011;9505;50.882;5.350;2023-11-21T09:05:07;185.60;;;30.63;;
18752;SDS011;9505;50.882;5.350;2023-11-21T09:07:34;225.85;;;33.35;;
18752;SDS011;9505;50.882;5.350;2023-11-21T09:10:00;240.43;;;34.88;;
18752;SDS011;9505;50.882;5.350;2023-11-21T09:12:26;245.40;;;32.08;;
18752;SDS011;9505;50.882;5.350;2023-11-21T09:14:52;210.10;;;30.10;;
18752;SDS011;9505;50.882;5.350;2023-11-21T09:17:18;168.73;;;27.95;;
18752;SDS011;9505;50.882;5.350;2023-11-21T09:19:43;222.10;;;32.25;;
18752;SDS011;9505;50.882;5.350;2023-11-21T09:22:12;194.55;;;29.77;;
18752;SDS011;9505;50.882;5.350;2023-11-21T09:24:37;215.32;;;32.63;;
18752;SDS011;9505;50.882;5.350;2023-11-21T09:27:03;188.70;;;28.67;;
18752;SDS011;9505;50.882;5.350;2023-11-21T09:29:30;187.15;;;29.10;;
18752;SDS011;9505;50.882;5.350;2023-11-21T09:31:56;196.80;;;29.15;;
18752;SDS011;9505;50.882;5.350;2023-11-21T09:34:24;177.30;;;28.65;;
18752;SDS011;9505;50.882;5.350;2023-11-21T09:36:50;177.25;;;30.00;;
18752;SDS011;9505;50.882;5.350;2023-11-21T09:39:16;197.32;;;29.60;;
18752;SDS011;9505;50.882;5.350;2023-11-21T09:41:51;133.65;;;26.92;;
18752;SDS011;9505;50.882;5.350;2023-11-21T09:47:26;154.48;;;27.25;;
18752;SDS011;9505;50.882;5.350;2023-11-21T09:49:53;152.75;;;26.45;;
18752;SDS011;9505;50.882;5.350;2023-11-21T09:52:25;151.35;;;27.10;;
18752;SDS011;9505;50.882;5.350;2023-11-21T09:54:52;163.18;;;26.52;;
18752;SDS011;9505;50.882;5.350;2023-11-21T09:57:21;127.07;;;23.77;;
18752;SDS011;9505;50.882;5.350;2023-11-21T09:59:49;166.80;;;27.58;;
18752;SDS011;9505;50.882;5.350;2023-11-21T10:02:19;128.18;;;23.83;;
18752;SDS011;9505;50.882;5.350;2023-11-21T10:04:47;143.63;;;26.65;;
18752;SDS011;9505;50.882;5.350;2023-11-21T10:07:13;141.02;;;25.00;;
18752;SDS011;9505;50.882;5.350;2023-11-21T10:09:42;123.78;;;23.77;;
18752;SDS011;9505;50.882;5.350;2023-11-21T10:12:09;131.07;;;24.05;;
18752;SDS011;9505;50.882;5.350;2023-11-21T10:14:37;115.50;;;22.27;;
18752;SDS011;9505;50.882;5.350;2023-11-21T10:17:07;136.02;;;23.25;;
18752;SDS011;9505;50.882;5.350;2023-11-21T10:19:36;112.28;;;22.92;;
18752;SDS011;9505;50.882;5.350;2023-11-21T10:22:03;122.30;;;24.38;;
18752;SDS011;9505;50.882;5.350;2023-11-21T10:24:32;139.73;;;25.05;;
18752;SDS011;9505;50.882;5.350;2023-11-21T10:26:57;120.93;;;21.95;;
18752;SDS011;9505;50.882;5.350;2023-11-21T10:29:23;109.93;;;21.08;;
18752;SDS011;9505;50.882;5.350;2023-11-21T10:31:52;95.78;;;21.13;;
18752;SDS011;9505;50.882;5.350;2023-11-21T10:34:20;99.70;;;19.90;;
18752;SDS011;9505;50.882;5.350;2023-11-21T10:36:46;98.07;;;21.00;;
18752;SDS011;9505;50.882;5.350;2023-11-21T10:39:19;96.45;;;19.90;;
18752;SDS011;9505;50.882;5.350;2023-11-21T10:41:48;93.38;;;19.90;;
18752;SDS011;9505;50.882;5.350;2023-11-21T10:44:14;108.90;;;21.40;;
18752;SDS011;9505;50.882;5.350;2023-11-21T10:46:49;105.00;;;20.98;;
18752;SDS011;9505;50.882;5.350;2023-11-21T10:49:16;110.85;;;21.60;;
18752;SDS011;9505;50.882;5.350;2023-11-21T10:51:43;92.72;;;21.48;;
18752;SDS011;9505;50.882;5.350;2023-11-21T10:54:09;97.95;;;20.65;;
18752;SDS011;9505;50.882;5.350;2023-11-21T10:56:34;96.95;;;20.35;;
18752;SDS011;9505;50.882;5.350;2023-11-21T10:59:05;110.63;;;20.88;;
18752;SDS011;9505;50.882;5.350;2023-11-21T11:01:36;96.85;;;20.15;;
18752;SDS011;9505;50.882;5.350;2023-11-21T11:04:02;95.90;;;19.13;;
18752;SDS011;9505;50.882;5.350;2023-11-21T11:06:31;91.60;;;19.73;;
18752;SDS011;9505;50.882;5.350;2023-11-21T11:08:58;110.43;;;21.90;;
18752;SDS011;9505;50.882;5.350;2023-11-21T11:11:25;102.97;;;21.30;;
18752;SDS011;9505;50.882;5.350;2023-11-21T11:13:50;102.20;;;20.80;;
18752;SDS011;9505;50.882;5.350;2023-11-21T11:16:18;99.55;;;20.98;;
18752;SDS011;9505;50.882;5.350;2023-11-21T11:18:45;91.15;;;19.45;;
18752;SDS011;9505;50.882;5.350;2023-11-21T11:24:08;98.55;;;21.13;;
18752;SDS011;9505;50.882;5.350;2023-11-21T11:26:42;86.30;;;20.08;;
18752;SDS011;9505;50.882;5.350;2023-11-21T11:34:26;101.30;;;19.58;;
18752;SDS011;9505;50.882;5.350;2023-11-21T11:37:07;96.63;;;19.20;;
18752;SDS011;9505;50.882;5.350;2023-11-21T11:42:15;84.45;;;19.00;;
18752;SDS011;9505;50.882;5.350;2023-11-21T11:47:14;71.35;;;16.35;;
18752;SDS011;9505;50.882;5.350;2023-11-21T11:52:41;74.50;;;16.67;;
18752;SDS011;9505;50.882;5.350;2023-11-21T11:55:18;70.63;;;16.63;;
18752;SDS011;9505;50.882;5.350;2023-11-21T11:57:47;73.00;;;15.20;;
18752;SDS011;9505;50.882;5.350;2023-11-21T12:02:53;73.43;;;16.42;;
18752;SDS011;9505;50.882;5.350;2023-11-21T12:05:24;69.45;;;16.58;;
18752;SDS011;9505;50.882;5.350;2023-11-21T12:07:56;70.57;;;16.73;;
18752;SDS011;9505;50.882;5.350;2023-11-21T12:10:26;82.43;;;17.98;;
18752;SDS011;9505;50.882;5.350;2023-11-21T12:12:57;93.35;;;20.10;;
18752;SDS011;9505;50.882;5.350;2023-11-21T12:15:24;101.00;;;21.23;;
18752;SDS011;9505;50.882;5.350;2023-11-21T12:17:50;111.10;;;20.85;;
18752;SDS011;9505;50.882;5.350;2023-11-21T12:20:20;98.13;;;21.20;;
18752;SDS011;9505;50.882;5.350;2023-11-21T12:22:48;105.60;;;22.65;;
18752;SDS011;9505;50.882;5.350;2023-11-21T12:25:18;131.85;;;24.67;;
18752;SDS011;9505;50.882;5.350;2023-11-21T12:27:48;97.43;;;21.50;;
18752;SDS011;9505;50.882;5.350;2023-11-21T12:30:15;87.55;;;19.77;;
18752;SDS011;9505;50.882;5.350;2023-11-21T12:32:50;89.75;;;20.83;;
18752;SDS011;9505;50.882;5.350;2023-11-21T12:35:17;83.03;;;20.50;;
18752;SDS011;9505;50.882;5.350;2023-11-21T12:37:48;101.07;;;22.00;;
18752;SDS011;9505;50.882;5.350;2023-11-21T12:40:15;89.80;;;21.10;;
18752;SDS011;9505;50.882;5.350;2023-11-21T12:42:42;80.88;;;19.42;;
18752;SDS011;9505;50.882;5.350;2023-11-21T12:47:42;80.18;;;19.33;;
18752;SDS011;9505;50.882;5.350;2023-11-21T12:50:08;88.68;;;19.30;;
18752;SDS011;9505;50.882;5.350;2023-11-21T12:52:44;86.70;;;20.10;;
18752;SDS011;9505;50.882;5.350;2023-11-21T12:55:16;90.85;;;21.10;;
18752;SDS011;9505;50.882;5.350;2023-11-21T12:57:47;81.72;;;18.90;;
18752;SDS011;9505;50.882;5.350;2023-11-21T13:00:36;74.00;;;17.83;;
18752;SDS011;9505;50.882;5.350;2023-11-21T13:03:08;98.05;;;21.05;;
18752;SDS011;9505;50.882;5.350;2023-11-21T13:05:37;71.22;;;17.30;;
18752;SDS011;9505;50.882;5.350;2023-11-21T13:08:04;74.97;;;18.85;;
18752;SDS011;9505;50.882;5.350;2023-11-21T13:10:33;85.85;;;18.48;;
18752;SDS011;9505;50.882;5.350;2023-11-21T13:13:01;82.32;;;17.65;;
18752;SDS011;9505;50.882;5.350;2023-11-21T13:15:30;77.50;;;17.20;;
18752;SDS011;9505;50.882;5.350;2023-11-21T13:17:57;82.00;;;18.45;;
18752;SDS011;9505;50.882;5.350;2023-11-21T13:20:26;87.10;;;20.65;;
18752;SDS011;9505;50.882;5.350;2023-11-21T13:22:53;83.38;;;20.23;;
18752;SDS011;9505;50.882;5.350;2023-11-21T13:25:33;60.13;;;17.75;;
18752;SDS011;9505;50.882;5.350;2023-11-21T13:27:59;60.60;;;16.60;;
18752;SDS011;9505;50.882;5.350;2023-11-21T13:30:28;72.85;;;17.00;;
18752;SDS011;9505;50.882;5.350;2023-11-21T13:33:07;76.82;;;18.33;;
18752;SDS011;9505;50.882;5.350;2023-11-21T13:35:35;81.05;;;20.15;;
18752;SDS011;9505;50.882;5.350;2023-11-21T13:38:12;77.70;;;19.52;;
18752;SDS011;9505;50.882;5.350;2023-11-21T13:40:42;66.53;;;20.08;;
18752;SDS011;9505;50.882;5.350;2023-11-21T13:43:17;85.22;;;21.15;;
18752;SDS011;9505;50.882;5.350;2023-11-21T13:45:47;73.35;;;20.23;;
18752;SDS011;9505;50.882;5.350;2023-11-21T13:48:23;86.28;;;21.45;;
18752;SDS011;9505;50.882;5.350;2023-11-21T13:51:02;102.22;;;22.25;;
18752;SDS011;9505;50.882;5.350;2023-11-21T13:53:45;74.53;;;19.92;;
18752;SDS011;9505;50.882;5.350;2023-11-21T13:56:14;91.88;;;22.02;;
18752;SDS011;9505;50.882;5.350;2023-11-21T13:58:50;73.50;;;18.38;;
18752;SDS011;9505;50.882;5.350;2023-11-21T14:01:17;83.43;;;20.15;;
18752;SDS011;9505;50.882;5.350;2023-11-21T14:03:49;84.10;;;20.80;;
18752;SDS011;9505;50.882;5.350;2023-11-21T14:06:16;72.50;;;18.75;;
18752;SDS011;9505;50.882;5.350;2023-11-21T14:08:49;74.13;;;19.25;;
18752;SDS011;9505;50.882;5.350;2023-11-21T14:11:15;77.18;;;19.10;;
18752;SDS011;9505;50.882;5.350;2023-11-21T14:13:43;61.22;;;17.52;;
18752;SDS011;9505;50.882;5.350;2023-11-21T14:16:12;72.13;;;17.88;;
18752;SDS011;9505;50.882;5.350;2023-11-21T14:18:39;58.63;;;17.63;;
18752;SDS011;9505;50.882;5.350;2023-11-21T14:21:17;64.88;;;16.75;;
18752;SDS011;9505;50.882;5.350;2023-11-21T14:23:43;68.70;;;16.85;;
18752;SDS011;9505;50.882;5.350;2023-11-21T14:26:11;73.07;;;18.05;;
18752;SDS011;9505;50.882;5.350;2023-11-21T14:28:40;51.45;;;15.93;;
18752;SDS011;9505;50.882;5.350;2023-11-21T14:31:06;68.03;;;17.60;;
18752;SDS011;9505;50.882;5.350;2023-11-21T14:33:33;58.38;;;15.90;;
18752;SDS011;9505;50.882;5.350;2023-11-21T14:35:59;53.17;;;14.73;;
18752;SDS011;9505;50.882;5.350;2023-11-21T14:38:25;60.55;;;16.08;;
18752;SDS011;9505;50.882;5.350;2023-11-21T14:40:50;67.50;;;16.98;;
18752;SDS011;9505;50.882;5.350;2023-11-21T14:43:16;76.20;;;18.13;;
18752;SDS011;9505;50.882;5.350;2023-11-21T14:45:44;50.70;;;15.73;;
18752;SDS011;9505;50.882;5.350;2023-11-21T14:48:09;43.25;;;14.95;;
18752;SDS011;9505;50.882;5.350;2023-11-21T14:50:41;66.40;;;16.73;;